Time;durP1;ratioP1;P1;durP2;ratioP2;P2;SDS_P1;SDS_P2;PMS_P1;PMS_P2;Temp;Humidity;BMP_temperature;BMP_pressure;BME280_temperature;BME280_humidity;BME280_pressure;Samples;Min_cycle;Max_cycle;Signal;HPM_P1;HPM_P2
2022/12/10 00:01:24;;;;;;;60.53;32.95;;;-3276.00;90.60;;;;;;5015375;28;20965;-41
2022/12/10 00:03:51;;;;;;;55.85;32.25;;;-3275.90;90.60;;;;;;5032378;28;20029;-45
2022/12/10 00:06:20;;;;;;;57.22;33.95;;;-3276.00;90.70;;;;;;5032197;28;20466;-41
2022/12/10 00:08:47;;;;;;;53.85;29.80;;;-3276.00;90.60;;;;;;5032464;28;20029;-42
2022/12/10 00:11:16;;;;;;;60.45;32.72;;;-3276.00;90.60;;;;;;5033178;28;20076;-43
2022/12/10 00:13:44;;;;;;;55.78;29.80;;;-3275.90;90.50;;;;;;5037174;28;20529;-41
2022/12/10 00:16:12;;;;;;;56.20;32.55;;;-3275.90;90.40;;;;;;5019336;28;20066;-42
2022/12/10 00:18:39;;;;;;;55.70;31.13;;;-3275.90;90.40;;;;;;5013055;28;20033;-41
2022/12/10 00:21:11;;;;;;;49.95;29.45;;;-3275.90;90.40;;;;;;5032390;28;20104;-42
2022/12/10 00:23:39;;;;;;;59.15;33.80;;;-3275.90;90.40;;;;;;5029940;28;20021;-42
2022/12/10 00:26:12;;;;;;;56.28;30.83;;;-3275.80;90.50;;;;;;5032783;28;20045;-41
2022/12/10 00:28:40;;;;;;;55.28;30.63;;;-3275.80;90.50;;;;;;5033177;28;20033;-42
2022/12/10 00:31:10;;;;;;;61.10;32.78;;;-3275.80;90.50;;;;;;5031470;28;20029;-42
2022/12/10 00:33:38;;;;;;;56.63;32.53;;;-3275.80;90.50;;;;;;5033176;28;20481;-43
2022/12/10 00:36:15;;;;;;;59.78;30.50;;;-3275.80;90.50;;;;;;5032405;28;20044;-45
2022/12/10 00:38:43;;;;;;;54.00;30.10;;;-3275.80;90.50;;;;;;5016251;28;20029;-44
2022/12/10 00:41:13;;;;;;;54.38;31.63;;;-3275.70;90.40;;;;;;5031764;28;20100;-42
2022/12/10 00:43:41;;;;;;;58.15;28.48;;;-3275.70;90.60;;;;;;5021112;28;20496;-45
2022/12/10 00:46:08;;;;;;;55.70;32.00;;;-3275.70;90.40;;;;;;5029747;28;20087;-41
2022/12/10 00:48:35;;;;;;;60.00;32.88;;;-3275.60;90.50;;;;;;5030080;28;20026;-43
2022/12/10 00:51:07;;;;;;;56.10;32.67;;;-3275.60;90.60;;;;;;5026740;28;20033;-41
2022/12/10 00:53:38;;;;;;;54.00;30.38;;;-3275.60;90.60;;;;;;5032071;28;20026;-43
2022/12/10 00:56:08;;;;;;;53.58;31.50;;;-3275.70;90.70;;;;;;5031917;28;20061;-44
2022/12/10 00:58:36;;;;;;;59.33;33.30;;;-3275.70;90.80;;;;;;5017971;28;20049;-45
2022/12/10 01:01:18;;;;;;;59.72;32.58;;;-3275.80;90.80;;;;;;5027848;28;20111;-44
2022/12/10 01:03:49;;;;;;;59.78;33.03;;;-3275.70;90.70;;;;;;5032451;28;20025;-44
2022/12/10 01:06:22;;;;;;;59.00;32.22;;;-3275.70;90.70;;;;;;5032647;28;20040;-44
2022/12/10 01:08:50;;;;;;;59.40;31.00;;;-3275.70;90.80;;;;;;5031430;28;20029;-42
2022/12/10 01:11:20;;;;;;;59.77;33.53;;;-3275.70;90.70;;;;;;5031072;28;20083;-44
2022/12/10 01:13:48;;;;;;;51.03;30.63;;;-3275.70;90.70;;;;;;5028151;28;20100;-42
2022/12/10 01:16:19;;;;;;;52.65;32.22;;;-3275.60;90.60;;;;;;5031011;28;20042;-43
2022/12/10 01:18:46;;;;;;;62.90;32.22;;;-3275.70;90.80;;;;;;5032232;28;20018;-46
2022/12/10 01:21:17;;;;;;;58.75;33.75;;;-3275.70;90.80;;;;;;5032874;28;20018;-44
2022/12/10 01:23:46;;;;;;;67.72;33.53;;;-3275.70;91.00;;;;;;5030931;28;20026;-45
2022/12/10 01:26:16;;;;;;;63.70;36.45;;;-3275.80;91.10;;;;;;5032653;28;20026;-41
2022/12/10 01:28:44;;;;;;;55.53;32.28;;;-3275.70;91.10;;;;;;5032700;28;20031;-42
2022/12/10 01:31:18;;;;;;;59.03;33.90;;;-3275.80;91.20;;;;;;5031131;28;20104;-43
2022/12/10 01:33:48;;;;;;;62.25;32.85;;;-3275.80;91.20;;;;;;5032515;28;20039;-42
2022/12/10 01:36:16;;;;;;;;;;;-3275.80;91.30;;;;;;5032915;28;20435;-42
2022/12/10 01:38:43;;;;;;;57.85;32.17;;;-3275.80;91.20;;;;;;5031582;28;19948;-44
2022/12/10 01:41:22;;;;;;;66.60;33.15;;;-3275.80;91.40;;;;;;5047798;28;20159;-42
2022/12/10 01:44:07;;;;;;;58.50;32.58;;;-3275.80;91.40;;;;;;5051594;28;20068;-44
2022/12/10 01:46:35;;;;;;;56.05;33.47;;;-3275.80;91.40;;;;;;5042397;28;20055;-43
2022/12/10 01:49:05;;;;;;;60.92;32.88;;;-3275.80;91.40;;;;;;5031247;28;20025;-42
2022/12/10 01:51:34;;;;;;;59.55;31.95;;;-3275.80;91.40;;;;;;5030450;28;20033;-41
2022/12/10 01:54:04;;;;;;;53.60;31.42;;;-3275.80;91.50;;;;;;5028203;28;20489;-43
2022/12/10 01:56:33;;;;;;;58.03;33.40;;;-3275.80;91.50;;;;;;5032144;28;20450;-46
2022/12/10 01:58:59;;;;;;;;;;;-3275.80;91.40;;;;;;5031715;28;20379;-45
2022/12/10 02:01:36;;;;;;;62.38;33.92;;;-3275.80;91.30;;;;;;5031918;28;19913;-44
2022/12/10 02:04:25;;;;;;;55.92;33.00;;;-3275.80;91.30;;;;;;5034307;28;20386;-43
2022/12/10 02:07:10;;;;;;;67.05;32.83;;;-3275.80;91.20;;;;;;5034903;28;20030;-42
2022/12/10 02:10:00;;;;;;;69.45;34.38;;;-3275.80;91.30;;;;;;5035967;28;20036;-42
2022/12/10 02:12:39;;;;;;;59.10;34.40;;;-3275.80;91.60;;;;;;5043507;28;20128;-42
2022/12/10 02:15:27;;;;;;;57.53;31.25;;;-3275.80;91.60;;;;;;5035726;28;20477;-41
2022/12/10 02:18:18;;;;;;;61.20;35.25;;;-3275.80;91.60;;;;;;5027608;28;20611;-44
2022/12/10 02:21:08;;;;;;;71.13;36.30;;;-3275.80;91.70;;;;;;5034634;28;20170;-42
2022/12/10 02:23:42;;;;;;;60.42;33.65;;;-3275.80;91.70;;;;;;5033845;28;20037;-42
2022/12/10 02:26:33;;;;;;;71.85;35.10;;;-3275.80;91.80;;;;;;5030982;28;20099;-44
2022/12/10 02:29:17;;;;;;;63.58;36.38;;;-3275.80;92.00;;;;;;5023822;28;20525;-41
2022/12/10 02:31:59;;;;;;;68.53;35.70;;;-3275.90;92.00;;;;;;5030400;28;20104;-41
2022/12/10 02:34:31;;;;;;;66.65;36.20;;;-3275.80;92.10;;;;;;5018401;28;20184;-41
2022/12/10 02:37:03;;;;;;;70.00;37.55;;;-3275.90;92.20;;;;;;5035165;28;20041;-41
2022/12/10 02:39:35;;;;;;;64.78;35.28;;;-3275.90;92.40;;;;;;5035319;28;20037;-42
2022/12/10 02:42:03;;;;;;;68.38;37.45;;;-3275.90;92.40;;;;;;5034311;28;20087;-43
2022/12/10 02:44:32;;;;;;;75.70;35.60;;;-3275.90;92.50;;;;;;5034294;28;20037;-44
2022/12/10 02:47:02;;;;;;;64.13;36.53;;;-3275.90;92.50;;;;;;5033344;28;20335;-41
2022/12/10 02:49:30;;;;;;;67.75;35.72;;;-3275.90;92.50;;;;;;5034365;28;20448;-42
2022/12/10 02:51:59;;;;;;;68.85;37.00;;;-3275.90;92.60;;;;;;5034755;28;20034;-42
2022/12/10 02:54:46;;;;;;;70.28;38.00;;;-3276.00;92.60;;;;;;5028950;28;20112;-44
2022/12/10 02:57:42;;;;;;;71.57;37.20;;;-3276.00;92.70;;;;;;5033323;28;20053;-41
2022/12/10 03:00:28;;;;;;;64.00;33.78;;;-3276.00;92.70;;;;;;5034851;28;20791;-41
2022/12/10 03:03:13;;;;;;;72.45;34.85;;;-3276.00;92.70;;;;;;5033462;28;20061;-43
2022/12/10 03:06:25;;;;;;;63.13;33.45;;;-3276.00;92.70;;;;;;5021180;28;20025;-44
2022/12/10 03:09:03;;;;;;;70.05;36.80;;;-3276.00;92.80;;;;;;5054225;28;20064;-44
2022/12/10 03:11:30;;;;;;;75.43;33.90;;;-3276.00;92.80;;;;;;5046724;28;20029;-44
2022/12/10 03:14:09;;;;;;;66.85;35.45;;;-3276.00;92.70;;;;;;5032172;28;20108;-43
2022/12/10 03:16:42;;;;;;;71.00;38.78;;;-3276.00;92.70;;;;;;5034326;28;20025;-44
2022/12/10 03:19:16;;;;;;;71.40;35.72;;;-3276.00;92.70;;;;;;5031139;28;20038;-45
2022/12/10 03:21:46;;;;;;;69.88;37.80;;;-3275.90;92.70;;;;;;5037526;28;20749;-42
2022/12/10 03:24:15;;;;;;;67.85;35.85;;;-3275.90;92.70;;;;;;5048774;28;20398;-44
2022/12/10 03:26:45;;;;;;;72.15;37.85;;;-3275.90;92.70;;;;;;5033206;28;20057;-41
2022/12/10 03:29:33;;;;;;;69.40;34.38;;;-3275.90;92.80;;;;;;5027382;28;20144;-42
2022/12/10 03:32:02;;;;;;;64.68;36.40;;;-3275.90;92.80;;;;;;5032157;28;20045;-43
2022/12/10 03:34:29;;;;;;;;;;;-3275.90;92.80;;;;;;5032724;28;20038;-42
2022/12/10 03:37:03;;;;;;;61.97;33.13;;;-3275.90;92.80;;;;;;5033781;28;19959;-44
2022/12/10 03:39:33;;;;;;;67.97;36.13;;;-3275.90;92.70;;;;;;5014411;28;20112;-45
2022/12/10 03:42:00;;;;;;;73.65;38.58;;;-3275.90;92.70;;;;;;5027044;28;20033;-43
2022/12/10 03:44:35;;;;;;;82.78;40.08;;;-3275.90;92.70;;;;;;5030525;28;20029;-44
2022/12/10 03:47:04;;;;;;;69.82;36.72;;;-3275.90;92.80;;;;;;5024799;28;20470;-41
2022/12/10 03:49:31;;;;;;;73.32;34.65;;;-3275.90;92.60;;;;;;5023835;28;20034;-45
2022/12/10 03:51:58;;;;;;;74.20;36.30;;;-3275.90;92.60;;;;;;5012851;28;20107;-44
2022/12/10 03:54:25;;;;;;;71.15;36.22;;;-3275.90;92.60;;;;;;5015318;28;20029;-44
2022/12/10 03:56:54;;;;;;;65.47;33.63;;;-3275.90;92.60;;;;;;5029160;28;20123;-47
2022/12/10 03:59:22;;;;;;;66.07;34.05;;;-3275.90;92.50;;;;;;5025244;28;20146;-42
2022/12/10 04:01:53;;;;;;;59.38;32.85;;;-3275.80;92.30;;;;;;5008474;28;20022;-47
2022/12/10 04:04:20;;;;;;;62.13;33.65;;;-3275.80;92.20;;;;;;5023262;28;20033;-46
2022/12/10 04:06:47;;;;;;;58.50;33.60;;;-3275.80;92.20;;;;;;5021201;28;20018;-43
2022/12/10 04:09:16;;;;;;;61.45;32.92;;;-3275.80;92.10;;;;;;5022551;28;20082;-42
2022/12/10 04:11:43;;;;;;;61.57;32.07;;;-3275.70;92.00;;;;;;5020959;28;20348;-48
2022/12/10 04:16:56;;;;;;;61.83;33.85;;;-3275.70;92.00;;;;;;5014019;28;20076;-42
2022/12/10 04:19:23;;;;;;;63.67;33.67;;;-3275.70;91.90;;;;;;5022726;28;20072;-43
2022/12/10 04:27:27;;;;;;;63.88;32.80;;;-3275.70;92.00;;;;;;5014527;28;20032;-43
2022/12/10 04:30:00;;;;;;;67.15;33.13;;;-3275.70;92.00;;;;;;5022231;28;20111;-44
2022/12/10 04:32:32;;;;;;;59.75;31.77;;;-3275.70;92.00;;;;;;5051901;28;20116;-41
2022/12/10 04:34:59;;;;;;;60.50;33.83;;;-3275.80;91.90;;;;;;5033217;28;20411;-42
2022/12/10 04:37:27;;;;;;;63.72;33.67;;;-3275.80;91.80;;;;;;5033177;28;20037;-41
2022/12/10 04:39:56;;;;;;;58.38;31.13;;;-3275.70;91.70;;;;;;5032152;28;20033;-43
2022/12/10 04:42:24;;;;;;;59.53;33.60;;;-3275.70;91.80;;;;;;5033537;28;20029;-44
2022/12/10 04:44:51;;;;;;;59.20;32.53;;;-3275.70;91.90;;;;;;5022563;28;20510;-42
2022/12/10 04:47:18;;;;;;;56.25;31.65;;;-3275.70;91.80;;;;;;5031943;28;20037;-44
2022/12/10 04:49:45;;;;;;;61.10;33.95;;;-3275.80;91.90;;;;;;5023138;28;20331;-41
2022/12/10 04:52:15;;;;;;;66.10;34.97;;;-3275.80;91.70;;;;;;5013341;28;20034;-44
2022/12/10 04:54:41;;;;;;;60.33;35.17;;;-3275.80;91.80;;;;;;5013063;28;20108;-42
2022/12/10 04:57:08;;;;;;;53.88;30.63;;;-3275.80;91.80;;;;;;5029365;28;20049;-42
2022/12/10 04:59:35;;;;;;;59.80;33.55;;;-3275.80;91.70;;;;;;5040892;28;20095;-42
2022/12/10 05:02:03;;;;;;;56.03;32.45;;;-3275.80;91.80;;;;;;5052723;28;20032;-43
2022/12/10 05:04:30;;;;;;;59.47;31.52;;;-3275.80;91.70;;;;;;5042756;28;20447;-42
2022/12/10 05:06:59;;;;;;;56.33;31.02;;;-3275.80;91.60;;;;;;5032847;28;20508;-42
2022/12/10 05:09:26;;;;;;;55.97;31.45;;;-3275.70;91.60;;;;;;5032835;28;20128;-42
2022/12/10 05:11:52;;;;;;;58.03;32.85;;;-3275.80;91.60;;;;;;5032845;28;20034;-41
2022/12/10 05:14:19;;;;;;;59.13;31.40;;;-3275.80;91.40;;;;;;5035140;28;20037;-42
2022/12/10 05:16:49;;;;;;;60.63;31.77;;;-3275.80;91.40;;;;;;5033217;28;20060;-43
2022/12/10 05:19:19;;;;;;;59.65;32.00;;;-3275.70;91.30;;;;;;5030947;28;20514;-44
2022/12/10 05:24:31;;;;;;;57.78;30.73;;;-3275.70;91.30;;;;;;5047201;28;20003;-45
2022/12/10 05:27:02;;;;;;;57.47;32.33;;;-3275.70;91.20;;;;;;5029475;28;20034;-47
2022/12/10 05:29:31;;;;;;;56.92;29.60;;;-3275.70;91.20;;;;;;5032542;28;20343;-46
2022/12/10 05:31:58;;;;;;;53.92;29.90;;;-3275.60;91.20;;;;;;5032391;28;20057;-43
2022/12/10 05:34:27;;;;;;;58.45;33.72;;;-3275.60;91.10;;;;;;5028808;28;20042;-41
2022/12/10 05:36:55;;;;;;;63.45;30.67;;;-3275.60;91.10;;;;;;5016596;28;20030;-44
2022/12/10 05:39:21;;;;;;;63.03;32.78;;;-3275.60;91.10;;;;;;5016586;28;20044;-44
2022/12/10 05:41:48;;;;;;;58.25;30.95;;;-3275.60;91.00;;;;;;5033673;28;20057;-47
2022/12/10 05:44:15;;;;;;;50.30;31.08;;;-3275.60;91.10;;;;;;5035312;28;20355;-41
2022/12/10 05:46:41;;;;;;;57.92;31.67;;;-3275.60;91.20;;;;;;5047297;28;20021;-41
2022/12/10 05:49:08;;;;;;;56.60;32.22;;;-3275.60;91.00;;;;;;5018341;28;20029;-43
2022/12/10 05:51:37;;;;;;;59.53;34.83;;;-3275.60;91.00;;;;;;5034785;28;20347;-44
2022/12/10 05:54:08;;;;;;;60.00;31.20;;;-3275.60;91.00;;;;;;5036116;28;20018;-41
2022/12/10 05:56:36;;;;;;;58.33;32.25;;;-3275.60;91.10;;;;;;5034781;28;20061;-41
2022/12/10 05:59:04;;;;;;;62.58;34.78;;;-3275.60;91.10;;;;;;5033663;28;20124;-44
2022/12/10 06:01:36;;;;;;;57.25;32.40;;;-3275.60;91.00;;;;;;5034952;28;20047;-46
2022/12/10 06:04:03;;;;;;;60.63;33.08;;;-3275.60;91.00;;;;;;5034465;28;20025;-43
2022/12/10 06:06:35;;;;;;;55.72;32.15;;;-3275.60;91.00;;;;;;5021889;28;20356;-44
2022/12/10 06:09:04;;;;;;;58.92;31.77;;;-3275.60;90.90;;;;;;5022950;28;20443;-41
2022/12/10 06:11:31;;;;;;;51.65;30.73;;;-3275.60;90.90;;;;;;5033461;28;20029;-42
2022/12/10 06:13:59;;;;;;;57.00;32.38;;;-3275.60;90.90;;;;;;5034130;28;20038;-44
2022/12/10 06:16:27;;;;;;;61.33;32.78;;;-3275.60;90.80;;;;;;5034256;28;20451;-41
2022/12/10 06:18:55;;;;;;;59.63;33.97;;;-3275.60;90.80;;;;;;5055551;28;20108;-44
2022/12/10 06:21:23;;;;;;;55.53;32.22;;;-3275.60;90.80;;;;;;5041845;28;20044;-44
2022/12/10 06:23:51;;;;;;;58.67;33.35;;;-3275.60;90.80;;;;;;5034621;28;20026;-43
2022/12/10 06:26:21;;;;;;;54.63;32.20;;;-3275.60;90.80;;;;;;5035732;28;20287;-42
2022/12/10 06:28:48;;;;;;;57.13;30.77;;;-3275.60;90.60;;;;;;5043256;28;20570;-45
2022/12/10 06:31:15;;;;;;;59.72;31.13;;;-3275.60;90.60;;;;;;5043277;28;20029;-46
2022/12/10 06:33:42;;;;;;;56.25;31.35;;;-3275.60;90.60;;;;;;5035143;28;20025;-41
2022/12/10 06:36:12;;;;;;;53.85;31.08;;;-3275.60;90.60;;;;;;5018960;28;20104;-42
2022/12/10 06:38:38;;;;;;;53.08;33.00;;;-3275.60;90.60;;;;;;5042752;28;20132;-41
2022/12/10 06:41:10;;;;;;;55.25;32.05;;;-3275.60;90.60;;;;;;5054555;28;20025;-42
2022/12/10 06:43:37;;;;;;;55.45;32.15;;;-3275.60;90.70;;;;;;5054028;28;20023;-42
2022/12/10 06:46:08;;;;;;;60.78;33.95;;;-3275.70;90.70;;;;;;5044325;28;20025;-43
2022/12/10 06:48:35;;;;;;;60.80;34.08;;;-3275.70;90.70;;;;;;5035871;28;20402;-43
2022/12/10 06:51:04;;;;;;;61.03;31.65;;;-3275.80;90.60;;;;;;5030207;28;20036;-47
2022/12/10 06:53:33;;;;;;;65.07;35.03;;;-3275.80;90.50;;;;;;5025344;28;20026;-41
2022/12/10 06:56:00;;;;;;;55.08;32.92;;;-3275.80;90.60;;;;;;5022346;28;20046;-41
2022/12/10 06:58:28;;;;;;;60.78;32.78;;;-3275.80;90.50;;;;;;5024826;28;20049;-41
2022/12/10 07:01:05;;;;;;;59.80;32.80;;;-3275.80;90.60;;;;;;5025746;28;20037;-47
2022/12/10 07:03:32;;;;;;;53.17;31.63;;;-3275.80;90.50;;;;;;5025346;28;20096;-43
2022/12/10 07:06:00;;;;;;;56.85;32.50;;;-3275.80;90.50;;;;;;5021220;28;20099;-41
2022/12/10 07:08:28;;;;;;;60.85;34.13;;;-3275.80;90.50;;;;;;5017500;28;20029;-43
2022/12/10 07:10:54;;;;;;;58.13;33.05;;;-3275.80;90.40;;;;;;5018760;28;20029;-42
2022/12/10 07:13:24;;;;;;;59.58;32.85;;;-3275.90;90.50;;;;;;5023581;28;20034;-42
2022/12/10 07:15:51;;;;;;;56.60;32.90;;;-3275.90;90.50;;;;;;5022450;28;20038;-43
2022/12/10 07:18:18;;;;;;;56.30;32.05;;;-3275.90;90.50;;;;;;5027848;28;20506;-41
2022/12/10 07:20:44;;;;;;;59.63;33.95;;;-3275.90;90.40;;;;;;5025303;28;20033;-42
2022/12/10 07:23:11;;;;;;;62.13;35.30;;;-3275.90;90.50;;;;;;5049860;28;20438;-40
2022/12/10 07:25:38;;;;;;;59.33;32.75;;;-3275.90;90.40;;;;;;5021721;28;20091;-41
2022/12/10 07:28:05;;;;;;;65.38;35.08;;;-3275.90;90.40;;;;;;5024676;28;20533;-48
2022/12/10 07:30:32;;;;;;;62.47;35.08;;;-3275.90;90.50;;;;;;5024350;28;20026;-44
2022/12/10 07:32:59;;;;;;;62.63;36.47;;;-3275.90;90.30;;;;;;5028841;28;20431;-42
2022/12/10 07:35:28;;;;;;;57.35;33.58;;;-3275.90;90.40;;;;;;5031077;28;20406;-43
2022/12/10 07:37:54;;;;;;;56.22;32.38;;;-3276.00;90.70;;;;;;5022963;28;20428;-41
2022/12/10 07:40:21;;;;;;;58.20;33.78;;;-3276.10;90.80;;;;;;5032575;28;20068;-41
2022/12/10 07:42:48;;;;;;;60.05;34.53;;;-3276.10;90.70;;;;;;5033297;28;20034;-41
2022/12/10 07:45:15;;;;;;;63.17;33.15;;;-3276.20;90.40;;;;;;5021943;28;20104;-43
2022/12/10 07:47:42;;;;;;;56.38;34.88;;;-3276.10;90.20;;;;;;5022446;28;20113;-41
2022/12/10 07:50:09;;;;;;;59.53;35.25;;;-3276.10;90.10;;;;;;5026232;28;20513;-40
2022/12/10 07:52:35;;;;;;;60.58;34.78;;;-3276.10;90.00;;;;;;5015797;28;20478;-41
2022/12/10 07:55:02;;;;;;;54.15;32.63;;;-3276.10;90.00;;;;;;5032174;28;20029;-41
2022/12/10 07:57:31;;;;;;;56.78;33.05;;;-3276.10;89.90;;;;;;5033516;28;20175;-44
2022/12/10 07:59:58;;;;;;;56.30;33.20;;;-3276.20;90.10;;;;;;5031516;28;20037;-41
2022/12/10 08:02:25;;;;;;;57.00;35.65;;;-3276.10;90.00;;;;;;5026840;28;20371;-41
2022/12/10 08:04:54;;;;;;;55.15;32.97;;;-3276.10;90.00;;;;;;5028914;28;20409;-41
2022/12/10 08:07:21;;;;;;;57.25;33.40;;;-3276.10;89.90;;;;;;5023633;28;20029;-41
2022/12/10 08:09:46;;;;;;;57.63;35.47;;;-3276.10;89.90;;;;;;5035317;28;20031;-41
2022/12/10 08:12:13;;;;;;;60.33;34.28;;;-3276.20;90.10;;;;;;5027111;28;20021;-41
2022/12/10 08:14:39;;;;;;;58.85;35.47;;;-3276.20;89.90;;;;;;5022198;28;20508;-40
2022/12/10 08:17:06;;;;;;;64.00;34.10;;;-3276.20;89.80;;;;;;5028098;28;20120;-44
2022/12/10 08:19:33;;;;;;;61.33;35.72;;;-3276.20;89.90;;;;;;5035581;28;20045;-43
2022/12/10 08:22:00;;;;;;;61.03;32.83;;;-3276.20;89.80;;;;;;5024851;28;20033;-43
2022/12/10 08:24:26;;;;;;;60.50;34.47;;;-3276.20;89.60;;;;;;5024782;28;20649;-41
2022/12/10 08:26:55;;;;;;;55.05;31.80;;;-3276.20;89.80;;;;;;5031588;28;20099;-41
2022/12/10 08:29:22;;;;;;;58.40;33.85;;;-3276.20;89.60;;;;;;5028967;28;20447;-41
2022/12/10 08:31:51;;;;;;;59.42;32.67;;;-3276.20;89.60;;;;;;5020306;28;20041;-43
2022/12/10 08:34:21;;;;;;;53.17;33.85;;;-3276.30;89.30;;;;;;5012160;28;20034;-42
2022/12/10 08:36:52;;;;;;;55.25;34.33;;;-3276.20;89.40;;;;;;5019181;28;20546;-41
2022/12/10 08:39:19;;;;;;;56.00;32.10;;;-3276.20;89.30;;;;;;5026762;28;20121;-41
2022/12/10 08:41:48;;;;;;;57.90;32.47;;;-3276.20;89.30;;;;;;5023837;28;20025;-42
2022/12/10 08:44:15;;;;;;;55.83;34.47;;;-3276.20;89.40;;;;;;5026071;28;20026;-43
2022/12/10 08:46:40;;;;;;;53.42;33.00;;;-3276.20;89.40;;;;;;5023339;28;20026;-43
2022/12/10 08:49:07;;;;;;;57.53;35.30;;;-3276.30;89.50;;;;;;5025327;28;20140;-41
2022/12/10 08:51:37;;;;;;;55.38;33.95;;;-3276.20;89.40;;;;;;5022486;28;20485;-44
2022/12/10 08:54:04;;;;;;;57.33;34.10;;;-3276.30;89.60;;;;;;5022800;28;20359;-41
2022/12/10 08:56:31;;;;;;;55.40;33.47;;;-3276.30;89.60;;;;;;5019561;28;20029;-41
2022/12/10 08:58:58;;;;;;;57.20;33.60;;;-3276.30;89.60;;;;;;5020899;28;20390;-42
2022/12/10 09:01:28;;;;;;;56.58;33.53;;;-3276.40;89.40;;;;;;5021415;28;20025;-41
2022/12/10 09:03:55;;;;;;;57.17;32.35;;;-3276.40;89.40;;;;;;5015208;28;20033;-41
2022/12/10 09:06:26;;;;;;;60.35;36.08;;;-3276.40;89.60;;;;;;5018865;28;20037;-40
2022/12/10 09:08:53;;;;;;;54.40;33.55;;;-3276.50;89.50;;;;;;5026227;28;20059;-41
2022/12/10 09:11:22;;;;;;;54.78;33.35;;;-3276.50;89.50;;;;;;5022221;28;20034;-41
2022/12/10 09:13:49;;;;;;;55.25;34.90;;;-3276.50;89.60;;;;;;5016269;28;20036;-41
2022/12/10 09:16:17;;;;;;;55.67;32.97;;;-3276.60;89.50;;;;;;5052244;28;20075;-41
2022/12/10 09:18:44;;;;;;;54.25;33.00;;;-3276.60;89.60;;;;;;5034173;28;20388;-42
2022/12/10 09:21:14;;;;;;;52.83;31.75;;;-3276.70;89.50;;;;;;5027246;28;20064;-43
2022/12/10 09:23:42;;;;;;;55.40;33.55;;;-3276.70;89.40;;;;;;5018145;28;20140;-41
2022/12/10 09:26:14;;;;;;;52.38;32.45;;;-3276.70;89.30;;;;;;5031965;28;20032;-41
2022/12/10 09:28:42;;;;;;;55.85;35.75;;;-3276.70;89.20;;;;;;5026892;28;20025;-41
2022/12/10 09:31:10;;;;;;;56.45;35.03;;;-3276.70;89.20;;;;;;5024346;28;20048;-41
2022/12/10 09:33:37;;;;;;;59.92;34.72;;;-3276.70;89.40;;;;;;5032558;28;20022;-41
2022/12/10 09:36:06;;;;;;;61.88;35.60;;;-3276.70;89.50;;;;;;5026851;28;20040;-41
2022/12/10 09:38:37;;;;;;;52.58;33.40;;;-3276.70;89.40;;;;;;5017135;28;20037;-41
2022/12/10 09:41:12;;;;;;;52.53;32.65;;;0.00;89.40;;;;;;5026426;28;20451;-44
2022/12/10 09:43:57;;;;;;;52.50;34.03;;;0.00;89.40;;;;;;5032549;28;20043;-40
2022/12/10 09:46:53;;;;;;;54.67;33.78;;;0.00;89.50;;;;;;5023198;28;20359;-42
2022/12/10 09:49:55;;;;;;;55.45;31.58;;;0.10;89.40;;;;;;5020050;28;20411;-41
2022/12/10 09:52:25;;;;;;;55.33;35.55;;;0.20;89.30;;;;;;5027320;28;20045;-41
2022/12/10 09:55:13;;;;;;;52.22;32.58;;;0.20;89.10;;;;;;5030218;28;20046;-40
2022/12/10 09:57:43;;;;;;;50.05;33.05;;;0.30;88.90;;;;;;5029145;28;20049;-46
2022/12/10 10:00:38;;;;;;;50.13;33.33;;;0.40;88.80;;;;;;5029507;28;20029;-41
2022/12/10 10:03:06;;;;;;;55.00;32.55;;;0.40;88.50;;;;;;5022052;28;20017;-43
2022/12/10 10:05:40;;;;;;;54.35;33.42;;;0.50;88.30;;;;;;5028832;28;20017;-43
2022/12/10 10:08:18;;;;;;;50.33;31.20;;;0.60;88.40;;;;;;5031677;28;20025;-44
2022/12/10 10:10:45;;;;;;;51.40;29.95;;;0.50;88.10;;;;;;5031245;28;20060;-40
2022/12/10 10:13:35;;;;;;;52.85;32.00;;;0.60;88.30;;;;;;5030149;28;20026;-42
2022/12/10 10:16:35;;;;;;;50.13;30.98;;;0.60;88.20;;;;;;5026063;28;20056;-43
2022/12/10 10:19:13;;;;;;;55.35;34.47;;;0.60;88.00;;;;;;5025905;28;20049;-41
2022/12/10 10:21:47;;;;;;;49.50;32.63;;;0.60;88.20;;;;;;5023662;28;20026;-41
2022/12/10 10:24:24;;;;;;;48.45;30.85;;;0.60;88.00;;;;;;5017954;28;20418;-41
2022/12/10 10:26:54;;;;;;;51.60;31.90;;;0.70;88.10;;;;;;5027403;28;20198;-45
2022/12/10 10:29:21;;;;;;;51.65;31.77;;;0.60;88.20;;;;;;5026068;28;20029;-48
2022/12/10 10:32:19;;;;;;;52.75;32.95;;;0.60;88.10;;;;;;5035027;28;20033;-42
2022/12/10 10:34:57;;;;;;;48.03;30.27;;;0.70;88.20;;;;;;5022703;28;20021;-46
2022/12/10 10:37:45;;;;;;;48.13;31.17;;;0.70;88.10;;;;;;5032687;28;20360;-48
2022/12/10 10:40:45;;;;;;;46.47;29.48;;;0.70;88.20;;;;;;5034498;28;20386;-47
2022/12/10 10:43:51;;;;;;;47.20;30.85;;;0.70;88.10;;;;;;5019003;28;20038;-50
2022/12/10 10:46:23;;;;;;;49.03;29.95;;;0.70;87.80;;;;;;5028465;28;20032;-46
2022/12/10 10:48:49;;;;;;;47.72;30.05;;;0.80;88.00;;;;;;5024297;28;20029;-49
2022/12/10 10:51:41;;;;;;;47.95;31.98;;;0.80;87.70;;;;;;5021881;28;20328;-48
2022/12/10 10:54:07;;;;;;;47.65;28.60;;;0.80;87.60;;;;;;5022169;28;20111;-50
2022/12/10 10:56:42;;;;;;;44.92;29.73;;;0.80;87.70;;;;;;5025916;28;20025;-54
2022/12/10 10:59:22;;;;;;;44.40;28.35;;;0.80;87.70;;;;;;5024765;28;20072;-57
2022/12/10 11:02:19;;;;;;;50.67;30.92;;;0.90;88.20;;;;;;5013304;28;20614;-58
2022/12/10 11:04:51;;;;;;;49.63;29.73;;;0.90;88.10;;;;;;5014605;28;20037;-60
2022/12/10 11:07:37;;;;;;;44.05;30.33;;;0.90;88.00;;;;;;5026937;28;20084;-60
2022/12/10 11:10:23;;;;;;;53.05;32.22;;;0.90;87.70;;;;;;5030699;28;20068;-61
2022/12/10 11:13:18;;;;;;;43.75;28.45;;;0.90;88.00;;;;;;5034510;28;20044;-61
2022/12/10 11:15:53;;;;;;;50.22;31.52;;;0.90;87.90;;;;;;5026262;28;20032;-62
2022/12/10 11:18:41;;;;;;;43.78;27.23;;;0.90;87.80;;;;;;5004393;28;20091;-62
2022/12/10 11:21:16;;;;;;;48.50;30.67;;;0.90;87.70;;;;;;5014496;28;20049;-62
2022/12/10 11:23:47;;;;;;;46.30;28.40;;;0.90;87.80;;;;;;5027588;28;20462;-62
2022/12/10 11:26:50;;;;;;;45.80;29.17;;;0.80;87.80;;;;;;5033337;28;20450;-63
2022/12/10 11:29:40;;;;;;;51.67;30.98;;;0.80;88.00;;;;;;5033477;28;20522;-63
2022/12/10 11:32:28;;;;;;;48.15;30.23;;;0.80;87.90;;;;;;5029268;28;20112;-63
2022/12/10 11:35:37;;;;;;;50.85;30.17;;;0.70;88.00;;;;;;5024986;28;20041;-63
2022/12/10 11:38:43;;;;;;;47.00;30.13;;;0.70;88.00;;;;;;5032026;28;20021;-63
2022/12/10 11:41:24;;;;;;;44.63;28.27;;;0.70;88.30;;;;;;5030788;28;20033;-63
2022/12/10 11:44:25;;;;;;;53.65;30.40;;;0.70;88.30;;;;;;5022472;28;20121;-63
2022/12/10 11:47:23;;;;;;;50.15;30.90;;;0.70;88.50;;;;;;5029730;28;20195;-63
2022/12/10 11:50:17;;;;;;;47.92;30.40;;;0.70;88.50;;;;;;5032312;28;20443;-63
2022/12/10 11:53:16;;;;;;;47.75;29.45;;;0.80;88.60;;;;;;5050783;28;20443;-64
2022/12/10 11:55:45;;;;;;;50.00;31.63;;;0.80;88.30;;;;;;5014146;28;20030;-63
2022/12/10 11:58:32;;;;;;;43.45;29.35;;;0.80;88.40;;;;;;5030503;28;20045;-63
2022/12/10 12:01:21;;;;;;;42.08;29.30;;;0.80;88.40;;;;;;5020946;28;20367;-63
2022/12/10 12:04:24;;;;;;;42.33;28.00;;;0.90;88.40;;;;;;5014668;28;20029;-64
2022/12/10 12:07:41;;;;;;;50.78;30.67;;;0.90;88.00;;;;;;5040554;28;20029;-63
2022/12/10 12:10:26;;;;;;;46.88;30.05;;;0.80;88.10;;;;;;5018848;28;20376;-63
2022/12/10 12:12:54;;;;;;;45.03;29.42;;;0.80;88.20;;;;;;5018099;28;20561;-63
2022/12/10 12:15:31;;;;;;;46.17;29.30;;;0.80;88.00;;;;;;5029850;28;20029;-63
2022/12/10 12:18:20;;;;;;;44.05;28.15;;;0.90;88.00;;;;;;5028803;28;20029;-64
2022/12/10 12:21:11;;;;;;;46.90;31.27;;;0.90;88.10;;;;;;5023854;28;20467;-64
2022/12/10 12:23:46;;;;;;;46.63;29.20;;;0.90;88.20;;;;;;5029192;28;20041;-64
2022/12/10 12:26:28;;;;;;;44.33;30.63;;;0.90;88.20;;;;;;5021997;28;20037;-64
2022/12/10 12:29:13;;;;;;;43.20;30.63;;;1.00;88.20;;;;;;5018209;28;20029;-65
2022/12/10 12:31:43;;;;;;;41.83;28.73;;;1.00;88.00;;;;;;5020381;28;20672;-65
2022/12/10 12:34:48;;;;;;;44.72;28.77;;;1.00;87.90;;;;;;5037208;28;20129;-64
2022/12/10 12:37:17;;;;;;;43.85;28.38;;;1.00;87.90;;;;;;5031778;28;20068;-65
2022/12/10 12:40:27;;;;;;;42.05;28.25;;;1.10;87.70;;;;;;5030041;28;20025;-65
2022/12/10 12:42:59;;;;;;;46.85;29.33;;;1.00;87.50;;;;;;5032339;28;20025;-65
2022/12/10 12:45:36;;;;;;;43.80;28.58;;;1.10;87.90;;;;;;5025416;28;20367;-65
2022/12/10 12:48:22;;;;;;;42.15;30.00;;;1.10;87.80;;;;;;5031587;28;20025;-65
2022/12/10 12:51:13;;;;;;;41.33;29.10;;;1.00;87.50;;;;;;5016769;28;20022;-64